createdAt,value
2022-12-28T00:01:17.716Z,99381.82
2022-12-28T00:03:44.883Z,99382.31
2022-12-28T00:06:12.402Z,99385.77
2022-12-28T00:08:39.479Z,99382.59
2022-12-28T00:11:20.379Z,99383.28
2022-12-28T00:13:53.819Z,99379.67
2022-12-28T00:16:34.658Z,99375.88
2022-12-28T00:19:02.032Z,99368.76
2022-12-28T00:21:31.531Z,99359.66
2022-12-28T00:23:59.481Z,99358.38
2022-12-28T00:26:27.446Z,99361.79
2022-12-28T00:28:58.287Z,99374.85
2022-12-28T00:31:30.708Z,99377.67
2022-12-28T00:33:57.872Z,99377.42
2022-12-28T00:36:24.846Z,99376.45
2022-12-28T00:39:11.908Z,99376.83
2022-12-28T00:41:38.967Z,99374.13
2022-12-28T00:44:08.650Z,99378.06
2022-12-28T00:46:35.899Z,99384.64
2022-12-28T00:49:02.881Z,99381.81
2022-12-28T00:51:29.936Z,99381.02
2022-12-28T00:53:56.884Z,99381.64
2022-12-28T00:56:24.439Z,99383.14
2022-12-28T00:58:56.040Z,99389.59
2022-12-28T01:01:23.567Z,99389.33
2022-12-28T01:03:50.802Z,99394.29
2022-12-28T01:06:19.388Z,99396.19
2022-12-28T01:08:46.404Z,99392.52
2022-12-28T01:11:16.970Z,99390.02
2022-12-28T01:13:43.884Z,99386.05
2022-12-28T01:16:15.038Z,99389.69
2022-12-28T01:18:42.189Z,99388.13
2022-12-28T01:21:13.540Z,99389.98
2022-12-28T01:23:43.411Z,99394.61
2022-12-28T01:26:10.239Z,99396.21
2022-12-28T01:28:39.029Z,99398.25
2022-12-28T01:31:07.090Z,99399.77
2022-12-28T01:33:34.104Z,99399.95
2022-12-28T01:36:24.387Z,99402.90
2022-12-28T01:38:59.022Z,99408.70
2022-12-28T01:41:27.344Z,99413.49
2022-12-28T01:43:54.538Z,99412.99
2022-12-28T01:46:47.514Z,99408.53
2022-12-28T01:49:27.863Z,99414.41
2022-12-28T01:52:15.008Z,99414.20
2022-12-28T01:54:45.982Z,99413.39
2022-12-28T01:57:13.392Z,99407.27
2022-12-28T01:59:42.386Z,99411.13
2022-12-28T02:02:09.982Z,99411.86
2022-12-28T02:04:37.109Z,99410.63
2022-12-28T02:07:03.988Z,99409.66
2022-12-28T02:09:40.852Z,99410.98
2022-12-28T02:12:08.613Z,99410.56
2022-12-28T02:14:35.958Z,99412.67
2022-12-28T02:17:02.891Z,99407.44
2022-12-28T02:19:41.511Z,99402.55
2022-12-28T02:22:34.420Z,99402.27
2022-12-28T02:25:21.518Z,99400.71
2022-12-28T02:28:26.213Z,99413.01
2022-12-28T02:31:04.931Z,99415.66
2022-12-28T02:33:54.771Z,99415.35
2022-12-28T02:36:28.149Z,99412.23
2022-12-28T02:39:01.787Z,99410.34
2022-12-28T02:41:28.898Z,99409.62
2022-12-28T02:43:55.819Z,99409.16
2022-12-28T02:46:47.332Z,99419.48
2022-12-28T02:49:43.366Z,99415.36
2022-12-28T02:52:41.806Z,99419.19
2022-12-28T02:55:38.086Z,99419.73
2022-12-28T02:58:20.396Z,99422.73
2022-12-28T03:01:13.040Z,99428.31
2022-12-28T03:03:41.295Z,99427.33
2022-12-28T03:06:35.162Z,99430.82
2022-12-28T03:09:19.542Z,99432.05
2022-12-28T03:11:52.816Z,99429.84
2022-12-28T03:14:43.962Z,99432.54
2022-12-28T03:17:30.450Z,99436.35
2022-12-28T03:20:21.933Z,99433.36
2022-12-28T03:23:07.335Z,99431.56
2022-12-28T03:25:56.743Z,99441.41
2022-12-28T03:28:48.497Z,99445.05
2022-12-28T03:31:19.252Z,99445.64
2022-12-28T03:33:52.024Z,99442.15
2022-12-28T03:36:28.769Z,99442.54
2022-12-28T03:39:17.801Z,99443.48
2022-12-28T03:42:12.789Z,99446.52
2022-12-28T03:44:39.702Z,99450.44
2022-12-28T03:47:11.724Z,99453.61
2022-12-28T03:49:38.711Z,99455.41
2022-12-28T03:52:07.193Z,99453.37
2022-12-28T03:54:34.092Z,99452.09
2022-12-28T03:57:01.320Z,99449.70
2022-12-28T03:59:31.408Z,99450.02
2022-12-28T04:01:59.426Z,99451.76
2022-12-28T04:04:28.119Z,99456.56
2022-12-28T04:06:55.079Z,99461.05
2022-12-28T04:09:22.628Z,99462.85
2022-12-28T04:11:49.568Z,99472.20
2022-12-28T04:14:22.043Z,99476.42
2022-12-28T04:16:50.353Z,99480.94
2022-12-28T04:19:17.914Z,99478.31
2022-12-28T04:21:45.957Z,99478.64
2022-12-28T04:24:12.952Z,99481.83
2022-12-28T04:26:40.648Z,99478.98
2022-12-28T04:29:08.914Z,99485.89
2022-12-28T04:31:44.998Z,99483.54
2022-12-28T04:34:14.727Z,99487.23
2022-12-28T04:36:47.371Z,99485.52
2022-12-28T04:39:16.930Z,99486.86
2022-12-28T04:41:43.956Z,99488.80
2022-12-28T04:44:10.799Z,99486.54
2022-12-28T04:46:38.185Z,99488.47
2022-12-28T04:49:05.287Z,99490.23
2022-12-28T04:51:35.449Z,99493.15
2022-12-28T04:54:03.003Z,99494.88
2022-12-28T04:56:30.116Z,99494.25
2022-12-28T04:58:58.501Z,99494.43
2022-12-28T05:01:25.772Z,99495.69
2022-12-28T05:03:56.520Z,99489.64
2022-12-28T05:06:25.480Z,99492.41
2022-12-28T05:08:53.145Z,99495.48
2022-12-28T05:11:21.634Z,99491.06
2022-12-28T05:13:48.952Z,99496.10
2022-12-28T05:16:18.850Z,99494.52
2022-12-28T05:18:45.868Z,99498.13
2022-12-28T05:21:17.848Z,99495.46
2022-12-28T05:23:47.229Z,99499.80
2022-12-28T05:26:16.457Z,99500.76
2022-12-28T05:28:43.358Z,99499.77
2022-12-28T05:31:14.945Z,99496.27
2022-12-28T05:33:42.268Z,99496.30
2022-12-28T05:36:11.031Z,99492.98
2022-12-28T05:38:39.018Z,99491.39
2022-12-28T05:41:07.368Z,99495.08
2022-12-28T05:43:34.338Z,99497.16
2022-12-28T05:46:12.818Z,99497.84
2022-12-28T05:48:40.403Z,99502.61
2022-12-28T05:51:11.644Z,99501.34
2022-12-28T05:53:38.948Z,99501.85
2022-12-28T05:56:14.839Z,99496.44
2022-12-28T05:58:43.395Z,99500.37
2022-12-28T06:01:17.137Z,99502.49
2022-12-28T06:03:46.284Z,99498.05
2022-12-28T06:06:14.708Z,99496.14
2022-12-28T06:08:42.073Z,99491.64
2022-12-28T06:11:12.383Z,99488.10
2022-12-28T06:13:39.364Z,99491.39
2022-12-28T06:16:07.430Z,99496.77
2022-12-28T06:18:34.679Z,99497.22
2022-12-28T06:21:05.796Z,99492.52
2022-12-28T06:23:33.886Z,99494.92
2022-12-28T06:26:02.187Z,99492.33
2022-12-28T06:28:29.422Z,99494.02
2022-12-28T06:31:07.397Z,99494.30
2022-12-28T06:33:35.030Z,99495.73
2022-12-28T06:36:02.506Z,99494.27
2022-12-28T06:38:32.606Z,99491.64
2022-12-28T06:41:14.609Z,99492.13
2022-12-28T06:43:42.894Z,99501.58
2022-12-28T06:46:10.334Z,99503.64
2022-12-28T06:48:37.278Z,99511.31
2022-12-28T06:51:12.761Z,99515.24
2022-12-28T06:53:39.914Z,99521.27
2022-12-28T06:56:19.628Z,99525.34
2022-12-28T06:58:47.300Z,99520.29
2022-12-28T07:01:22.362Z,99522.91
2022-12-28T07:03:50.080Z,99524.13
2022-12-28T07:06:17.955Z,99528.85
2022-12-28T08:47:23.947Z,99511.92
2022-12-28T08:49:50.863Z,99509.86
2022-12-28T08:52:17.728Z,99506.65
2022-12-28T08:54:44.545Z,99508.70
2022-12-28T08:57:11.416Z,99507.74
2022-12-28T08:59:38.678Z,99505.67
2022-12-28T09:02:05.666Z,99504.95
2022-12-28T09:04:32.878Z,99503.57
2022-12-28T09:06:59.829Z,99500.48
2022-12-28T09:09:27.161Z,99497.31
2022-12-28T09:11:54.124Z,99496.90
2022-12-28T09:14:24.114Z,99492.27
2022-12-28T09:16:52.999Z,99484.96
2022-12-28T09:19:20.077Z,99483.44
2022-12-28T09:21:49.259Z,99481.82
2022-12-28T09:24:16.689Z,99480.55
2022-12-28T09:26:43.891Z,99479.27
2022-12-28T09:29:11.984Z,99474.63
2022-12-28T09:31:40.655Z,99469.63
2022-12-28T09:36:56.009Z,99467.67
2022-12-28T09:39:25.091Z,99467.04
2022-12-28T09:42:16.939Z,99467.30
2022-12-28T09:44:56.207Z,99466.36
2022-12-28T09:47:26.812Z,99464.06
2022-12-28T09:50:09.170Z,99460.96
2022-12-28T09:52:49.535Z,99454.96
2022-12-28T09:55:18.389Z,99446.64
2022-12-28T09:57:48.342Z,99445.50
2022-12-28T10:00:33.448Z,99440.81
2022-12-28T10:03:02.025Z,99444.39
2022-12-28T10:05:29.234Z,99444.12
2022-12-28T10:07:58.511Z,99440.90
2022-12-28T10:10:25.466Z,99435.16
2022-12-28T10:12:53.373Z,99431.27
2022-12-28T10:15:20.308Z,99434.50
2022-12-28T10:17:47.341Z,99438.75
2022-12-28T10:20:20.316Z,99436.08
2022-12-28T10:22:54.235Z,99439.86
2022-12-28T10:25:22.810Z,99439.73
2022-12-28T10:27:49.883Z,99431.70
2022-12-28T10:30:27.303Z,99435.73
2022-12-28T10:33:03.177Z,99430.68
2022-12-28T10:35:35.714Z,99421.70
2022-12-28T10:38:04.328Z,99421.69
2022-12-28T10:40:34.157Z,99417.94
2022-12-28T10:43:06.943Z,99414.11
2022-12-28T10:45:41.479Z,99407.79
2022-12-28T10:48:10.572Z,99407.69
2022-12-28T10:50:48.179Z,99406.23
2022-12-28T10:53:26.097Z,99402.90
2022-12-28T10:56:07.341Z,99398.92
2022-12-28T10:58:34.391Z,99397.69
2022-12-28T11:01:05.228Z,99394.09
2022-12-28T11:03:37.026Z,99392.59
2022-12-28T11:06:26.354Z,99388.61
2022-12-28T11:09:18.070Z,99395.23
2022-12-28T11:11:46.365Z,99395.95
2022-12-28T11:14:37.149Z,99392.81
2022-12-28T11:17:23.991Z,99389.52
2022-12-28T11:19:52.956Z,99381.71
2022-12-28T11:22:24.114Z,99380.36
2022-12-28T11:24:51.012Z,99380.68
2022-12-28T11:27:19.346Z,99378.49
2022-12-28T11:29:49.453Z,99377.55
2022-12-28T11:32:22.688Z,99374.02
2022-12-28T11:34:50.324Z,99372.58
2022-12-28T11:37:17.307Z,99368.42
2022-12-28T11:39:47.197Z,99361.96
2022-12-28T11:42:41.010Z,99360.73
2022-12-28T11:45:17.187Z,99362.40
2022-12-28T11:47:45.741Z,99359.96
2022-12-28T11:50:36.607Z,99359.95
2022-12-28T11:53:09.059Z,99358.75
2022-12-28T11:55:39.101Z,99357.71
2022-12-28T11:58:30.838Z,99350.95
2022-12-28T12:01:00.231Z,99351.66
2022-12-28T12:04:06.615Z,99347.65
2022-12-28T12:06:43.210Z,99344.77
2022-12-28T12:09:23.914Z,99346.83
2022-12-28T12:11:59.235Z,99343.85
2022-12-28T12:14:33.623Z,99343.39
2022-12-28T12:17:05.704Z,99339.84
2022-12-28T12:19:39.005Z,99335.05
2022-12-28T12:22:25.020Z,99330.65
2022-12-28T12:24:56.677Z,99328.38
2022-12-28T12:27:36.652Z,99325.05
2022-12-28T12:30:15.083Z,99321.54
2022-12-28T12:32:47.583Z,99319.27
2022-12-28T12:35:20.170Z,99320.38
2022-12-28T12:38:00.229Z,99315.79
2022-12-28T12:41:01.571Z,99311.31
2022-12-28T12:43:46.731Z,99309.27
2022-12-28T12:46:16.682Z,99306.41
2022-12-28T12:49:20.660Z,99312.64
2022-12-28T12:52:15.171Z,99312.80
2022-12-28T12:55:10.620Z,99314.09
2022-12-28T12:58:04.673Z,99310.92
2022-12-28T13:00:53.135Z,99308.14
2022-12-28T13:03:40.881Z,99299.95
2022-12-28T13:06:07.782Z,99296.75
2022-12-28T13:08:42.070Z,99295.89
2022-12-28T13:11:10.300Z,99292.85
2022-12-28T13:13:38.836Z,99297.95
2022-12-28T13:16:16.998Z,99297.53
2022-12-28T13:19:00.924Z,99293.24
2022-12-28T13:21:29.560Z,99292.40
2022-12-28T13:23:56.734Z,99289.47
2022-12-28T13:26:28.623Z,99285.98
2022-12-28T13:28:59.598Z,99290.80
2022-12-28T13:31:36.336Z,99295.06
2022-12-28T13:34:24.536Z,99293.33
2022-12-28T13:36:53.846Z,99296.31
2022-12-28T13:39:20.876Z,99293.14
2022-12-28T13:41:58.845Z,99286.44
2022-12-28T13:44:43.861Z,99289.15
2022-12-28T13:47:13.579Z,99285.65
2022-12-28T13:49:47.724Z,99284.30
2022-12-28T13:52:18.197Z,99289.24
2022-12-28T13:54:47.517Z,99284.10
2022-12-28T13:57:45.224Z,99284.79
2022-12-28T14:00:01.204Z,99286.23
2022-12-28T14:02:28.918Z,99285.89
2022-12-28T14:04:55.979Z,99283.15
2022-12-28T14:07:25.010Z,99281.29
2022-12-28T14:09:51.828Z,99280.25
2022-12-28T14:12:19.520Z,99282.30
2022-12-28T14:14:47.712Z,99286.82
2022-12-28T14:17:14.561Z,99286.24
2022-12-28T14:19:42.060Z,99278.54
2022-12-28T14:22:34.675Z,99278.11
2022-12-28T14:25:12.589Z,99277.70
2022-12-28T14:27:45.682Z,99282.95
2022-12-28T14:30:28.962Z,99282.93
2022-12-28T14:32:56.791Z,99281.98
2022-12-28T14:35:25.854Z,99276.53
2022-12-28T14:37:54.644Z,99275.94
2022-12-28T14:40:26.998Z,99272.98
2022-12-28T14:42:54.364Z,99271.35
2022-12-28T14:46:07.140Z,99261.23
2022-12-28T14:48:29.626Z,99256.94
2022-12-28T14:51:17.592Z,99253.98
2022-12-28T14:53:45.003Z,99252.17
2022-12-28T14:56:16.451Z,99257.12
2022-12-28T14:58:55.167Z,99260.11
2022-12-28T15:01:22.323Z,99261.74
2022-12-28T15:03:57.360Z,99255.99
2022-12-28T15:06:28.815Z,99253.37
2022-12-28T15:08:58.411Z,99253.02
2022-12-28T15:11:26.970Z,99258.21
2022-12-28T15:13:53.921Z,99252.72
2022-12-28T15:16:23.216Z,99249.56
2022-12-28T15:18:50.710Z,99242.91
2022-12-28T15:21:19.412Z,99241.55
2022-12-28T15:23:50.380Z,99238.19
2022-12-28T15:26:17.828Z,99242.35
2022-12-28T15:28:44.708Z,99243.63
2022-12-28T15:31:14.150Z,99235.59
2022-12-28T15:33:41.062Z,99239.42
2022-12-28T15:36:17.380Z,99241.88
2022-12-28T15:38:45.695Z,99247.02
2022-12-28T15:41:31.445Z,99241.34
2022-12-28T15:43:59.445Z,99232.95
2022-12-28T15:46:26.455Z,99229.56
2022-12-28T15:48:53.641Z,99226.08
2022-12-28T15:51:20.591Z,99224.66
2022-12-28T15:53:47.501Z,99221.27
2022-12-28T15:56:22.153Z,99213.04
2022-12-28T15:58:49.172Z,99211.15
2022-12-28T16:01:16.137Z,99212.44
2022-12-28T16:03:43.067Z,99212.94
2022-12-28T16:06:10.253Z,99215.00
2022-12-28T16:08:37.115Z,99209.08
2022-12-28T16:11:11.414Z,99207.79
2022-12-28T16:13:38.244Z,99208.04
2022-12-28T16:16:09.719Z,99203.77
2022-12-28T16:18:36.776Z,99201.88
2022-12-28T16:21:05.436Z,99199.68
2022-12-28T16:23:36.519Z,99200.02
2022-12-28T16:26:03.483Z,99198.25
2022-12-28T16:28:30.631Z,99195.63
2022-12-28T16:30:57.693Z,99195.63
2022-12-28T16:33:24.893Z,99195.33
2022-12-28T16:35:59.148Z,99195.00
2022-12-28T16:38:27.942Z,99189.75
2022-12-28T16:40:57.961Z,99187.86
2022-12-28T16:43:24.943Z,99188.09
2022-12-28T16:45:51.974Z,99188.90
2022-12-28T16:48:18.993Z,99188.66
2022-12-28T16:50:45.857Z,99183.33
2022-12-28T16:53:12.897Z,99182.21
2022-12-28T16:55:41.241Z,99186.27
2022-12-28T16:58:08.670Z,99187.67
2022-12-28T17:00:35.782Z,99184.02
2022-12-28T17:06:32.649Z,99185.25
2022-12-28T17:09:03.389Z,99183.16
2022-12-28T17:11:31.027Z,99178.63
2022-12-28T17:14:02.806Z,99178.33
2022-12-28T17:16:29.953Z,99175.03
2022-12-28T17:18:57.502Z,99179.23
2022-12-28T17:21:24.458Z,99179.42
2022-12-28T18:55:58.982Z,99174.44
2022-12-28T18:58:27.237Z,99172.61
2022-12-28T19:00:54.641Z,99166.55
2022-12-28T19:03:21.677Z,99164.31
2022-12-28T19:06:02.320Z,99156.40
2022-12-28T19:08:31.242Z,99152.80
2022-12-28T19:10:58.617Z,99146.98
2022-12-28T19:13:25.555Z,99147.48
2022-12-28T19:15:52.707Z,99142.15
2022-12-28T19:18:19.890Z,99140.98
2022-12-28T19:20:46.729Z,99139.59
2022-12-28T19:23:13.646Z,99140.85
2022-12-28T19:25:40.594Z,99138.46
2022-12-28T19:28:07.647Z,99138.54
2022-12-28T19:30:35.841Z,99136.94
2022-12-28T19:33:02.869Z,99140.54
2022-12-28T19:35:29.909Z,99150.84
2022-12-28T19:37:56.859Z,99143.29
2022-12-28T19:40:24.018Z,99142.21
2022-12-28T19:42:51.161Z,99141.48
2022-12-28T19:45:18.365Z,99142.46
2022-12-28T19:47:45.545Z,99151.23
2022-12-28T19:50:12.421Z,99149.73
2022-12-28T19:52:40.392Z,99142.95
2022-12-28T19:55:07.682Z,99144.95
2022-12-28T19:57:38.653Z,99151.08
2022-12-28T20:00:07.379Z,99150.53
2022-12-28T20:02:34.614Z,99154.90
2022-12-28T20:05:01.545Z,99144.91
2022-12-28T20:07:29.084Z,99142.48
2022-12-28T20:09:55.976Z,99142.65
2022-12-28T20:12:22.837Z,99138.42
2022-12-28T20:14:49.678Z,99130.91
2022-12-28T20:17:16.775Z,99128.30
2022-12-28T20:19:43.586Z,99124.54
2022-12-28T20:22:10.426Z,99121.52
2022-12-28T20:24:37.551Z,99123.07
2022-12-28T20:27:04.439Z,99129.91
2022-12-28T20:29:32.591Z,99129.45
2022-12-28T20:31:59.928Z,99126.72
2022-12-28T20:34:27.393Z,99126.01
2022-12-28T20:36:54.255Z,99124.05
2022-12-28T20:39:21.601Z,99119.86
2022-12-28T20:42:07.201Z,99122.08
2022-12-28T20:44:34.762Z,99114.58
2022-12-28T20:47:04.541Z,99109.87
2022-12-28T20:49:31.887Z,99117.07
2022-12-28T20:51:59.017Z,99114.89
2022-12-28T20:54:26.110Z,99120.97
2022-12-28T20:56:55.734Z,99126.45
2022-12-28T20:59:24.949Z,99125.62
2022-12-28T21:01:52.370Z,99126.99
2022-12-28T21:04:19.408Z,99129.89
2022-12-28T21:06:46.717Z,99121.33
2022-12-28T21:09:13.634Z,99114.55
2022-12-28T21:11:41.193Z,99113.51
2022-12-28T21:14:08.106Z,99108.60
2022-12-28T21:16:35.093Z,99109.69
2022-12-28T21:19:02.045Z,99112.80
2022-12-28T21:21:29.171Z,99107.71
2022-12-28T21:23:56.275Z,99108.15
2022-12-28T21:26:23.155Z,99110.66
2022-12-28T21:28:50.081Z,99110.00
2022-12-28T21:31:17.091Z,99112.05
2022-12-28T21:33:47.257Z,99106.61
2022-12-28T21:36:18.375Z,99106.01
2022-12-28T21:38:46.429Z,99102.49
2022-12-28T21:41:38.084Z,99107.47
2022-12-28T21:44:09.916Z,99105.17
2022-12-28T21:46:36.768Z,99096.36
2022-12-28T21:49:04.102Z,99094.11
2022-12-28T21:51:31.635Z,99094.40
2022-12-28T21:53:59.412Z,99088.66
2022-12-28T21:56:27.947Z,99086.70
2022-12-28T21:58:55.312Z,99085.34
2022-12-28T22:01:41.382Z,99073.58
2022-12-28T22:04:29.707Z,99072.59
2022-12-28T22:06:56.600Z,99073.02
2022-12-28T22:09:42.062Z,99075.45
2022-12-28T22:12:30.388Z,99068.16
2022-12-28T22:15:16.954Z,99074.05
2022-12-28T22:17:44.047Z,99073.08
2022-12-28T22:20:12.007Z,99067.36
2022-12-28T22:22:40.082Z,99064.34
2022-12-28T22:25:07.507Z,99058.61
2022-12-28T22:27:34.594Z,99058.48
2022-12-28T22:30:01.506Z,99061.21
2022-12-28T22:32:28.513Z,99061.64
2022-12-28T22:34:55.724Z,99060.60
2022-12-28T22:37:22.592Z,99056.31
2022-12-28T22:39:49.467Z,99058.42
2022-12-28T22:42:16.383Z,99052.54
2022-12-28T22:44:43.218Z,99043.81
2022-12-28T22:47:10.051Z,99032.75
2022-12-28T22:49:37.066Z,99034.79
2022-12-28T22:52:04.044Z,99030.27
2022-12-28T22:54:31.178Z,99029.77
2022-12-28T22:56:58.075Z,99030.42
2022-12-28T22:59:24.992Z,99027.33
2022-12-28T23:01:53.082Z,99028.70
2022-12-28T23:04:20.299Z,99030.18
2022-12-28T23:06:47.138Z,99025.68
2022-12-28T23:09:14.091Z,99021.23
2022-12-28T23:11:41.367Z,99020.73
2022-12-28T23:14:30.177Z,99019.16
2022-12-28T23:16:58.007Z,99023.02
2022-12-28T23:19:43.847Z,99020.77
2022-12-28T23:22:32.898Z,99022.38
2022-12-28T23:25:18.545Z,99022.34
2022-12-28T23:27:45.711Z,99025.30
2022-12-28T23:30:17.813Z,99023.15
2022-12-28T23:32:45.718Z,99020.17
2022-12-28T23:35:12.640Z,99021.13
2022-12-28T23:37:39.667Z,99020.05
2022-12-28T23:40:08.033Z,99016.84
2022-12-28T23:42:36.283Z,99012.23
2022-12-28T23:45:07.568Z,99019.73
2022-12-28T23:47:34.865Z,99018.98
2022-12-28T23:50:01.823Z,99015.13
2022-12-28T23:52:28.776Z,99016.34
2022-12-28T23:54:55.634Z,99011.42
2022-12-28T23:57:23.087Z,99010.59
2022-12-28T23:59:50.115Z,99007.96
